Time;durP1;ratioP1;P1;durP2;ratioP2;P2;SDS_P1;SDS_P2;PMS_P1;PMS_P2;Temp;Humidity;BMP_temperature;BMP_pressure;BME280_temperature;BME280_humidity;BME280_pressure;Samples;Min_cycle;Max_cycle;Signal;HPM_P1;HPM_P2
2022/12/27 00:01:18;;;;;;;10.45;2.10;;;;;;;;;;5105986;28;20138;-73
2022/12/27 00:03:44;;;;;;;43.90;2.10;;;;;;;;;;5102930;28;20383;-73
2022/12/27 00:06:20;;;;;;;12.90;1.63;;;;;;;;;;5101053;28;20066;-73
2022/12/27 00:08:47;;;;;;;24.27;1.80;;;;;;;;;;5097697;28;20061;-73
2022/12/27 00:11:18;;;;;;;10.88;2.35;;;;;;;;;;5083385;28;20081;-73
2022/12/27 00:13:45;;;;;;;13.32;1.38;;;;;;;;;;5100887;28;20028;-73
2022/12/27 00:16:12;;;;;;;28.00;3.00;;;;;;;;;;5102113;28;20043;-74
2022/12/27 00:18:39;;;;;;;9.57;1.55;;;;;;;;;;5079109;28;20048;-74
2022/12/27 00:21:05;;;;;;;77.15;3.35;;;;;;;;;;5081764;28;20495;-75
2022/12/27 00:23:33;;;;;;;15.98;2.60;;;;;;;;;;5075546;28;20055;-75
2022/12/27 00:26:00;;;;;;;16.83;1.75;;;;;;;;;;5099559;28;20073;-74
2022/12/27 00:28:28;;;;;;;14.75;2.10;;;;;;;;;;5103030;28;20027;-74
2022/12/27 00:30:55;;;;;;;12.88;2.88;;;;;;;;;;5103172;28;20409;-72
2022/12/27 00:33:21;;;;;;;13.95;2.15;;;;;;;;;;5100658;28;20345;-73
2022/12/27 00:35:47;;;;;;;10.38;1.48;;;;;;;;;;5084921;28;20072;-73
2022/12/27 00:38:13;;;;;;;13.18;2.03;;;;;;;;;;5101329;28;20035;-72
2022/12/27 00:40:40;;;;;;;9.00;2.05;;;;;;;;;;5104601;28;20027;-72
2022/12/27 00:43:06;;;;;;;14.15;1.88;;;;;;;;;;5104176;28;20019;-73
2022/12/27 00:45:32;;;;;;;11.27;2.25;;;;;;;;;;5096822;28;20082;-73
2022/12/27 00:47:58;;;;;;;19.85;2.08;;;;;;;;;;5102424;28;20024;-73
2022/12/27 00:50:24;;;;;;;17.33;1.80;;;;;;;;;;5106075;28;20058;-73
2022/12/27 00:52:50;;;;;;;18.17;1.88;;;;;;;;;;5096845;28;20020;-72
2022/12/27 00:55:16;;;;;;;15.88;2.40;;;;;;;;;;5108109;27;20122;-73
2022/12/27 00:57:43;;;;;;;19.13;1.88;;;;;;;;;;5100900;28;20040;-74
2022/12/27 01:00:09;;;;;;;11.05;1.58;;;;;;;;;;5098086;28;20444;-73
2022/12/27 01:02:36;;;;;;;13.43;2.72;;;;;;;;;;5079638;28;20043;-73
2022/12/27 01:05:02;;;;;;;13.05;2.05;;;;;;;;;;5099586;28;20080;-74
2022/12/27 01:07:28;;;;;;;11.82;1.90;;;;;;;;;;5106478;28;20119;-73
2022/12/27 01:09:54;;;;;;;17.35;2.30;;;;;;;;;;5104559;28;20039;-72
2022/12/27 01:12:20;;;;;;;8.02;1.65;;;;;;;;;;5078362;28;20055;-73
2022/12/27 01:14:46;;;;;;;15.60;2.38;;;;;;;;;;5083605;28;20042;-73
2022/12/27 01:17:12;;;;;;;23.75;2.90;;;;;;;;;;5104381;28;20043;-74
2022/12/27 01:19:38;;;;;;;14.35;1.75;;;;;;;;;;5101504;28;20079;-73
2022/12/27 01:22:05;;;;;;;15.88;2.05;;;;;;;;;;5099349;28;20410;-73
2022/12/27 01:24:31;;;;;;;15.73;2.50;;;;;;;;;;5083912;28;20039;-74
2022/12/27 01:26:58;;;;;;;22.92;2.42;;;;;;;;;;5102403;28;20028;-73
2022/12/27 01:29:24;;;;;;;16.13;2.33;;;;;;;;;;5097263;28;20111;-74
2022/12/27 01:31:50;;;;;;;10.73;1.58;;;;;;;;;;5085279;28;20031;-74
2022/12/27 01:34:16;;;;;;;14.48;2.97;;;;;;;;;;5098635;28;20035;-74
2022/12/27 01:36:43;;;;;;;13.25;2.08;;;;;;;;;;5098695;28;20027;-73
2022/12/27 01:39:10;;;;;;;26.17;3.90;;;;;;;;;;5077351;28;20080;-74
2022/12/27 01:44:38;;;;;;;12.82;1.75;;;;;;;;;;5101725;28;20731;-73
2022/12/27 01:47:11;;;;;;;14.40;1.70;;;;;;;;;;5105218;28;20031;-73
2022/12/27 01:49:43;;;;;;;21.33;3.75;;;;;;;;;;5082609;28;20468;-73
2022/12/27 01:52:10;;;;;;;18.30;1.90;;;;;;;;;;5078695;28;21768;-75
2022/12/27 01:54:36;;;;;;;19.67;2.47;;;;;;;;;;5071143;28;20020;-73
2022/12/27 01:57:03;;;;;;;11.60;1.77;;;;;;;;;;5100683;28;20123;-73
2022/12/27 01:59:29;;;;;;;15.02;2.33;;;;;;;;;;5105340;28;20044;-74
2022/12/27 02:01:55;;;;;;;12.18;1.67;;;;;;;;;;5079387;28;20020;-74
2022/12/27 02:04:23;;;;;;;18.67;3.78;;;;;;;;;;5102145;28;20108;-75
2022/12/27 02:06:50;;;;;;;15.30;2.22;;;;;;;;;;5108082;28;20031;-74
2022/12/27 02:09:29;;;;;;;14.15;2.38;;;;;;;;;;5103106;28;20028;-74
2022/12/27 02:11:57;;;;;;;12.52;1.75;;;;;;;;;;5107262;28;20381;-74
2022/12/27 02:14:23;;;;;;;17.00;2.33;;;;;;;;;;5108209;28;20099;-73
2022/12/27 02:16:49;;;;;;;14.27;1.30;;;;;;;;;;5098711;28;20036;-74
2022/12/27 02:19:36;;;;;;;13.65;2.08;;;;;;;;;;5101904;28;20039;-73
2022/12/27 02:22:12;;;;;;;11.25;1.67;;;;;;;;;;5092210;28;20063;-74
2022/12/27 02:24:47;;;;;;;14.70;1.73;;;;;;;;;;5087863;28;20067;-74
2022/12/27 02:27:27;;;;;;;17.45;4.07;;;;;;;;;;5106664;28;20047;-75
2022/12/27 02:29:57;;;;;;;12.23;2.30;;;;;;;;;;5104225;28;20069;-74
2022/12/27 02:32:34;;;;;;;19.58;2.13;;;;;;;;;;5086995;28;20028;-74
2022/12/27 02:35:23;;;;;;;19.15;2.47;;;;;;;;;;5102834;28;20118;-73
2022/12/27 02:37:51;;;;;;;18.48;3.13;;;;;;;;;;5106007;28;20036;-73
2022/12/27 02:54:58;;;;;;;13.13;1.67;;;;;;;;;;5102182;28;20037;-73
2022/12/27 02:57:33;;;;;;;17.90;2.75;;;;;;;;;;5103148;28;20043;-73
2022/12/27 03:03:20;;;;;;;13.07;1.77;;;;;;;;;;5105710;28;20038;-72
2022/12/27 03:06:38;;;;;;;11.27;2.50;;;;;;;;;;5098369;28;20088;-72
2022/12/27 03:08:34;;;;;;;17.73;2.65;;;;;;;;;;5100407;28;20441;-74
2022/12/27 03:16:40;;;;;;;17.27;2.72;;;;;;;;;;5104811;28;20569;-72
2022/12/27 03:25:26;;;;;;;13.68;1.75;;;;;;;;;;5104631;28;20039;-72
2022/12/27 03:27:39;;;;;;;25.20;3.42;;;;;;;;;;5102207;28;20085;-72
2022/12/27 03:33:14;;;;;;;16.45;3.60;;;;;;;;;;5103855;28;20058;-73
2022/12/27 03:35:40;;;;;;;12.40;2.53;;;;;;;;;;5103250;28;20030;-73
2022/12/27 03:38:07;;;;;;;10.85;2.00;;;;;;;;;;5101410;28;20396;-73
2022/12/27 03:40:37;;;;;;;11.30;1.92;;;;;;;;;;5102872;28;20069;-73
2022/12/27 03:43:11;;;;;;;12.27;1.80;;;;;;;;;;5107411;28;20428;-73
2022/12/27 03:48:59;;;;;;;13.85;1.90;;;;;;;;;;5097192;28;20035;-72
2022/12/27 03:51:26;;;;;;;12.60;2.63;;;;;;;;;;5083196;28;20035;-73
2022/12/27 03:53:54;;;;;;;7.60;1.48;;;;;;;;;;5105588;28;20456;-73
2022/12/27 03:56:21;;;;;;;6.53;1.50;;;;;;;;;;5100370;28;20031;-73
2022/12/27 03:58:47;;;;;;;15.68;2.33;;;;;;;;;;5100317;28;20483;-73
2022/12/27 04:01:13;;;;;;;14.80;2.38;;;;;;;;;;5104722;28;20039;-73
2022/12/27 04:03:39;;;;;;;17.60;2.10;;;;;;;;;;5104358;28;20027;-72
2022/12/27 04:06:05;;;;;;;13.63;1.92;;;;;;;;;;5103062;28;20028;-74
2022/12/27 04:35:57;;;;;;;8.00;1.60;;;;;;;;;;5105918;27;20097;-73
2022/12/27 04:38:23;;;;;;;13.93;3.03;;;;;;;;;;5106710;28;20028;-74
2022/12/27 04:55:23;;;;;;;11.13;3.20;;;;;;;;;;5102459;28;20042;-74
2022/12/27 04:57:49;;;;;;;15.18;2.30;;;;;;;;;;5103361;28;20504;-74
2022/12/27 05:03:03;;;;;;;17.90;3.00;;;;;;;;;;5084213;28;20669;-72
2022/12/27 05:05:29;;;;;;;16.88;1.73;;;;;;;;;;5096521;28;20066;-72
2022/12/27 05:16:11;;;;;;;7.35;1.35;;;;;;;;;;5102289;28;20104;-74
2022/12/27 05:18:37;;;;;;;13.68;1.90;;;;;;;;;;5110777;28;20040;-74
2022/12/27 05:21:04;;;;;;;17.30;3.70;;;;;;;;;;5090018;28;20035;-74
2022/12/27 05:26:26;;;;;;;13.25;2.70;;;;;;;;;;5103241;28;20529;-74
2022/12/27 05:28:53;;;;;;;16.92;2.35;;;;;;;;;;5092740;28;20109;-75
2022/12/27 05:31:19;;;;;;;17.65;2.55;;;;;;;;;;5109135;28;20020;-74
2022/12/27 05:33:46;;;;;;;18.80;3.65;;;;;;;;;;5109188;28;20069;-74
2022/12/27 05:36:12;;;;;;;12.35;3.63;;;;;;;;;;5110919;28;20472;-74
2022/12/27 05:38:38;;;;;;;26.73;7.32;;;;;;;;;;5110978;28;20028;-74
2022/12/27 05:41:06;;;;;;;16.50;3.58;;;;;;;;;;5107171;28;20047;-74
2022/12/27 05:43:32;;;;;;;11.20;2.25;;;;;;;;;;5107504;28;20027;-74
2022/12/27 05:46:09;;;;;;;19.63;3.50;;;;;;;;;;5103774;28;20516;-74
2022/12/27 05:48:35;;;;;;;11.75;1.73;;;;;;;;;;5101866;28;20031;-74
2022/12/27 05:51:08;;;;;;;12.43;2.22;;;;;;;;;;5103505;28;20032;-74
2022/12/27 05:53:34;;;;;;;12.05;2.20;;;;;;;;;;5104134;28;20159;-74
2022/12/27 05:56:01;;;;;;;10.73;1.50;;;;;;;;;;5101276;28;20032;-74
2022/12/27 05:58:27;;;;;;;29.40;2.70;;;;;;;;;;5098977;28;20032;-73
2022/12/27 06:00:53;;;;;;;10.38;2.00;;;;;;;;;;5101684;28;20038;-74
2022/12/27 06:03:20;;;;;;;11.48;2.40;;;;;;;;;;5101930;28;20027;-73
2022/12/27 06:05:46;;;;;;;13.55;1.70;;;;;;;;;;5100017;28;20099;-74
2022/12/27 06:08:12;;;;;;;12.57;1.98;;;;;;;;;;5097769;28;20073;-73
2022/12/27 06:10:38;;;;;;;11.30;2.35;;;;;;;;;;5104975;28;20020;-73
2022/12/27 06:13:05;;;;;;;11.10;1.88;;;;;;;;;;5103914;28;20027;-73
2022/12/27 06:15:31;;;;;;;8.07;1.52;;;;;;;;;;5097488;28;20024;-74
2022/12/27 06:17:57;;;;;;;8.23;1.30;;;;;;;;;;5095786;28;20127;-74
2022/12/27 06:20:24;;;;;;;9.90;2.95;;;;;;;;;;5085917;28;20027;-74
2022/12/27 06:22:50;;;;;;;18.58;1.92;;;;;;;;;;5066513;28;20503;-73
2022/12/27 06:25:16;;;;;;;13.75;2.38;;;;;;;;;;5084231;28;20470;-74
2022/12/27 06:27:42;;;;;;;13.73;2.10;;;;;;;;;;5085696;28;20111;-73
2022/12/27 06:30:10;;;;;;;11.18;1.75;;;;;;;;;;5081829;28;20474;-74
2022/12/27 06:32:37;;;;;;;17.50;2.97;;;;;;;;;;5082963;28;20020;-73
2022/12/27 06:35:03;;;;;;;11.60;2.22;;;;;;;;;;5067281;28;20447;-73
2022/12/27 06:37:32;;;;;;;18.10;3.45;;;;;;;;;;5084878;28;20364;-74
2022/12/27 06:39:58;;;;;;;20.38;2.35;;;;;;;;;;5081954;28;20066;-73
2022/12/27 06:42:24;;;;;;;12.70;1.80;;;;;;;;;;5083810;28;20029;-74
2022/12/27 06:44:50;;;;;;;9.93;1.70;;;;;;;;;;5085117;28;20035;-74
2022/12/27 06:47:16;;;;;;;29.15;2.45;;;;;;;;;;5082485;28;20028;-73
2022/12/27 06:49:42;;;;;;;18.52;3.80;;;;;;;;;;5083174;28;20127;-74
2022/12/27 06:52:08;;;;;;;13.98;2.20;;;;;;;;;;5083205;28;20032;-73
2022/12/27 06:54:34;;;;;;;16.00;2.38;;;;;;;;;;5087609;28;20020;-73
2022/12/27 06:57:00;;;;;;;9.43;2.58;;;;;;;;;;5087246;28;20332;-73
2022/12/27 06:59:26;;;;;;;10.38;1.90;;;;;;;;;;5090246;28;20340;-73
2022/12/27 07:01:52;;;;;;;19.52;2.75;;;;;;;;;;5085334;28;20026;-74
2022/12/27 07:04:18;;;;;;;13.07;2.00;;;;;;;;;;5083983;28;20063;-74
2022/12/27 07:06:44;;;;;;;23.35;3.00;;;;;;;;;;5088509;28;20406;-74
2022/12/27 07:09:10;;;;;;;12.02;2.78;;;;;;;;;;5088945;28;20039;-74
2022/12/27 07:11:37;;;;;;;16.00;3.25;;;;;;;;;;5085144;28;20028;-74
2022/12/27 07:14:03;;;;;;;16.63;3.17;;;;;;;;;;5086975;28;20016;-73
2022/12/27 07:16:30;;;;;;;13.68;2.35;;;;;;;;;;5084650;28;20032;-74
2022/12/27 07:18:57;;;;;;;23.38;2.28;;;;;;;;;;5097419;28;20050;-73
2022/12/27 07:21:24;;;;;;;45.10;3.13;;;;;;;;;;5107189;28;20016;-73
2022/12/27 07:23:51;;;;;;;18.25;3.13;;;;;;;;;;5077200;28;20119;-74
2022/12/27 07:26:18;;;;;;;17.60;3.00;;;;;;;;;;5098883;28;20055;-72
2022/12/27 07:28:44;;;;;;;17.27;2.80;;;;;;;;;;5098314;28;20031;-73
2022/12/27 07:31:12;;;;;;;16.00;3.65;;;;;;;;;;5102488;28;20107;-73
2022/12/27 07:33:38;;;;;;;21.40;2.85;;;;;;;;;;5097170;28;20047;-74
2022/12/27 07:36:06;;;;;;;15.73;2.47;;;;;;;;;;5095751;27;20024;-73
2022/12/27 07:38:33;;;;;;;14.00;1.92;;;;;;;;;;5079235;28;20096;-74
2022/12/27 07:41:00;;;;;;;57.75;24.40;;;;;;;;;;5099099;28;20464;-73
2022/12/27 07:43:28;;;;;;;19.55;4.38;;;;;;;;;;5103611;28;20636;-75
2022/12/27 07:45:54;;;;;;;17.08;3.65;;;;;;;;;;5105183;28;20055;-72
2022/12/27 07:48:20;;;;;;;11.25;2.17;;;;;;;;;;5085648;28;20036;-72
2022/12/27 07:50:54;;;;;;;20.02;2.15;;;;;;;;;;5100375;28;20340;-74
2022/12/27 07:53:20;;;;;;;19.10;3.33;;;;;;;;;;5075783;28;20030;-73
2022/12/27 07:55:47;;;;;;;10.75;1.88;;;;;;;;;;5101570;28;20424;-74
2022/12/27 07:58:13;;;;;;;18.42;2.05;;;;;;;;;;5084263;28;20414;-74
2022/12/27 08:00:40;;;;;;;18.77;2.97;;;;;;;;;;5097101;28;20055;-76
2022/12/27 08:03:06;;;;;;;13.00;2.42;;;;;;;;;;5078255;28;20024;-73
2022/12/27 08:05:32;;;;;;;17.98;4.47;;;;;;;;;;5101721;28;20468;-73
2022/12/27 08:08:00;;;;;;;32.78;13.30;;;;;;;;;;5103379;28;20495;-72
2022/12/27 08:10:27;;;;;;;15.70;2.33;;;;;;;;;;5105692;28;20039;-74
2022/12/27 08:12:53;;;;;;;14.93;2.50;;;;;;;;;;5103502;28;20123;-74
2022/12/27 08:15:20;;;;;;;8.38;2.17;;;;;;;;;;5103645;28;20357;-73
2022/12/27 08:17:46;;;;;;;12.68;2.70;;;;;;;;;;5074611;28;20060;-73
2022/12/27 08:20:15;;;;;;;12.88;3.17;;;;;;;;;;5104745;28;20027;-72
2022/12/27 08:22:41;;;;;;;18.58;2.25;;;;;;;;;;5101822;28;20031;-74
2022/12/27 08:25:07;;;;;;;16.23;2.33;;;;;;;;;;5104798;28;20023;-72
2022/12/27 08:27:33;;;;;;;10.20;2.60;;;;;;;;;;5087622;28;20027;-74
2022/12/27 08:29:59;;;;;;;23.63;2.33;;;;;;;;;;5102913;28;20031;-73
2022/12/27 08:32:26;;;;;;;11.93;2.38;;;;;;;;;;5100699;28;20052;-77
2022/12/27 08:34:52;;;;;;;15.18;2.15;;;;;;;;;;5102224;28;20030;-75
2022/12/27 08:37:18;;;;;;;17.45;3.63;;;;;;;;;;5099200;28;20202;-74
2022/12/27 08:39:44;;;;;;;36.47;14.65;;;;;;;;;;5100502;27;20035;-73
2022/12/27 08:42:13;;;;;;;16.92;4.35;;;;;;;;;;5099797;28;20032;-73
2022/12/27 08:44:39;;;;;;;28.60;7.78;;;;;;;;;;5104221;28;20516;-72
2022/12/27 08:47:05;;;;;;;17.08;4.45;;;;;;;;;;5099385;28;20467;-73
2022/12/27 08:49:31;;;;;;;19.40;4.82;;;;;;;;;;5102194;28;20471;-74
2022/12/27 08:51:57;;;;;;;25.15;5.13;;;;;;;;;;5103595;28;20344;-73
2022/12/27 08:54:23;;;;;;;11.68;3.45;;;;;;;;;;5103834;28;20050;-73
2022/12/27 08:56:49;;;;;;;13.93;2.70;;;;;;;;;;5108864;28;20081;-74
2022/12/27 08:59:16;;;;;;;17.35;2.72;;;;;;;;;;5111556;28;20028;-75
2022/12/27 09:01:42;;;;;;;19.40;3.70;;;;;;;;;;5110511;28;20093;-73
2022/12/27 09:04:08;;;;;;;11.77;2.45;;;;;;;;;;5104062;28;20032;-73
2022/12/27 09:06:34;;;;;;;15.95;2.63;;;;;;;;;;5111431;28;20098;-75
2022/12/27 09:09:00;;;;;;;17.15;3.17;;;;;;;;;;5110213;28;20032;-73
2022/12/27 09:11:31;;;;;;;11.75;3.20;;;;;;;;;;5102090;28;20286;-73
2022/12/27 09:13:58;;;;;;;20.90;4.07;;;;;;;;;;5109454;28;20027;-73
2022/12/27 09:16:28;;;;;;;17.48;3.83;;;;;;;;;;5110688;28;20066;-76
2022/12/27 09:18:55;;;;;;;18.15;4.32;;;;;;;;;;5091433;28;20168;-74
2022/12/27 09:21:22;;;;;;;12.05;4.15;;;;;;;;;;5100041;28;20027;-73
2022/12/27 09:23:49;;;;;;;21.02;5.78;;;;;;;;;;5109724;28;20023;-73
2022/12/27 09:26:20;;;;;;;18.20;6.00;;;;;;;;;;5111093;28;20019;-73
2022/12/27 09:28:46;;;;;;;19.75;4.25;;;;;;;;;;5108196;28;20089;-72
2022/12/27 09:31:14;;;;;;;15.70;4.35;;;;;;;;;;5109912;28;20027;-72
2022/12/27 09:33:40;;;;;;;18.42;5.18;;;;;;;;;;5092691;28;20032;-72
2022/12/27 09:36:11;;;;;;;17.90;3.53;;;;;;;;;;5100286;28;20023;-72
2022/12/27 09:38:37;;;;;;;16.25;3.00;;;;;;;;;;5112125;27;20093;-73
2022/12/27 09:41:05;;;;;;;14.43;3.92;;;;;;;;;;5110114;28;20028;-73
2022/12/27 09:43:46;;;;;;;15.95;2.00;;;;;;;;;;5110783;28;20016;-73
2022/12/27 09:46:21;;;;;;;18.85;3.22;;;;;;;;;;5110019;28;20028;-72
2022/12/27 09:48:49;;;;;;;9.68;2.10;;;;;;;;;;5091571;28;20035;-73
2022/12/27 09:51:15;;;;;;;14.50;2.17;;;;;;;;;;5109914;28;20130;-73
2022/12/27 09:53:52;;;;;;;16.65;2.47;;;;;;;;;;5110278;28;20091;-73
2022/12/27 09:56:27;;;;;;;15.10;2.55;;;;;;;;;;5105939;28;20059;-72
2022/12/27 09:59:04;;;;;;;13.18;2.30;;;;;;;;;;5109119;28;20030;-76
2022/12/27 10:01:39;;;;;;;13.60;2.22;;;;;;;;;;5110438;28;20034;-73
2022/12/27 10:04:09;;;;;;;17.73;3.50;;;;;;;;;;5106683;28;20023;-73
2022/12/27 10:06:56;;;;;;;11.48;4.13;;;;;;;;;;5108756;28;20031;-73
2022/12/27 10:09:30;;;;;;;20.25;2.90;;;;;;;;;;5109597;28;20038;-74
2022/12/27 10:12:08;;;;;;;11.07;2.33;;;;;;;;;;5107375;28;20546;-73
2022/12/27 10:14:43;;;;;;;22.88;3.42;;;;;;;;;;5108867;28;20031;-73
2022/12/27 10:17:19;;;;;;;16.33;2.45;;;;;;;;;;5110434;28;20034;-74
2022/12/27 10:20:07;;;;;;;14.15;2.20;;;;;;;;;;5109115;28;20125;-73
2022/12/27 10:22:35;;;;;;;17.63;3.60;;;;;;;;;;5108875;28;20103;-72
2022/12/27 10:25:03;;;;;;;13.35;3.15;;;;;;;;;;5085255;28;20379;-73
2022/12/27 10:27:30;;;;;;;21.20;2.97;;;;;;;;;;5095000;28;20030;-73
2022/12/27 10:29:58;;;;;;;15.02;2.90;;;;;;;;;;5111984;28;20024;-73
2022/12/27 10:32:24;;;;;;;12.80;2.58;;;;;;;;;;5111729;28;20027;-73
2022/12/27 10:34:59;;;;;;;12.27;2.83;;;;;;;;;;5114484;28;20019;-75
2022/12/27 10:37:25;;;;;;;13.63;2.90;;;;;;;;;;5103632;28;20123;-72
2022/12/27 10:39:51;;;;;;;12.98;2.63;;;;;;;;;;5114094;28;20067;-74
2022/12/27 10:42:17;;;;;;;16.63;2.35;;;;;;;;;;5111668;28;20163;-72
2022/12/27 10:44:43;;;;;;;15.57;3.17;;;;;;;;;;5113623;28;20023;-73
2022/12/27 10:47:09;;;;;;;12.70;2.45;;;;;;;;;;5113436;28;20024;-74
2022/12/27 10:49:35;;;;;;;11.10;1.77;;;;;;;;;;5113960;28;20456;-72
2022/12/27 10:52:08;;;;;;;11.52;2.88;;;;;;;;;;5105943;28;20243;-73
2022/12/27 10:54:34;;;;;;;15.05;2.08;;;;;;;;;;5111670;28;20027;-77
2022/12/27 10:57:19;;;;;;;16.10;2.40;;;;;;;;;;5087361;28;20050;-75
2022/12/27 10:59:45;;;;;;;9.48;2.17;;;;;;;;;;5112875;28;20148;-73
2022/12/27 11:02:15;;;;;;;11.95;3.03;;;;;;;;;;5112103;28;20024;-76
2022/12/27 11:04:55;;;;;;;12.05;1.67;;;;;;;;;;5106557;28;20027;-73
2022/12/27 11:07:21;;;;;;;15.25;2.10;;;;;;;;;;5113757;28;20482;-73
2022/12/27 11:09:47;;;;;;;11.85;1.88;;;;;;;;;;5113465;28;20027;-74
2022/12/27 11:12:16;;;;;;;14.30;3.05;;;;;;;;;;5111264;28;20027;-73
2022/12/27 11:14:56;;;;;;;8.23;1.85;;;;;;;;;;5111527;28;20477;-73
2022/12/27 11:17:24;;;;;;;6.75;1.40;;;;;;;;;;5113493;28;20178;-73
2022/12/27 11:19:50;;;;;;;13.30;2.90;;;;;;;;;;5110968;28;20471;-73
2022/12/27 11:22:17;;;;;;;9.88;1.70;;;;;;;;;;5094447;28;20023;-73
2022/12/27 11:24:45;;;;;;;11.50;2.67;;;;;;;;;;5108120;28;20035;-74
2022/12/27 11:27:20;;;;;;;11.68;3.05;;;;;;;;;;5100750;28;20088;-74
2022/12/27 11:29:46;;;;;;;9.77;3.10;;;;;;;;;;5111763;28;20397;-73
2022/12/27 11:32:12;;;;;;;9.18;1.85;;;;;;;;;;5111695;28;20050;-73
2022/12/27 11:34:39;;;;;;;12.68;2.17;;;;;;;;;;5111600;28;20456;-73
2022/12/27 11:37:13;;;;;;;16.70;2.05;;;;;;;;;;5103493;28;20027;-73
2022/12/27 11:39:46;;;;;;;12.13;2.50;;;;;;;;;;5111346;28;20032;-73
2022/12/27 11:42:22;;;;;;;15.38;2.35;;;;;;;;;;5110286;28;20483;-73
2022/12/27 11:44:57;;;;;;;10.70;2.10;;;;;;;;;;5112672;28;20395;-72
2022/12/27 11:47:30;;;;;;;9.85;1.80;;;;;;;;;;5108384;28;20361;-73
2022/12/27 11:50:02;;;;;;;12.10;2.22;;;;;;;;;;5112392;28;20024;-72
2022/12/27 11:52:42;;;;;;;17.55;2.42;;;;;;;;;;5107468;28;20374;-72
2022/12/27 11:55:26;;;;;;;16.95;2.03;;;;;;;;;;5112495;28;20035;-73
2022/12/27 11:57:52;;;;;;;14.18;2.83;;;;;;;;;;5110148;28;20031;-73
2022/12/27 12:00:22;;;;;;;14.38;3.05;;;;;;;;;;5112257;28;20027;-74
2022/12/27 12:02:51;;;;;;;11.68;2.67;;;;;;;;;;5112259;28;20071;-75
2022/12/27 12:05:20;;;;;;;7.82;1.88;;;;;;;;;;5097361;28;20055;-73
2022/12/27 12:07:46;;;;;;;13.55;2.03;;;;;;;;;;5111369;28;20320;-74
2022/12/27 12:10:12;;;;;;;8.23;1.80;;;;;;;;;;5111044;28;20220;-74
2022/12/27 12:12:57;;;;;;;13.02;1.98;;;;;;;;;;5110625;28;20016;-74
2022/12/27 12:15:51;;;;;;;12.75;2.55;;;;;;;;;;5111373;28;20035;-74
2022/12/27 12:18:23;;;;;;;16.70;2.50;;;;;;;;;;5094359;28;20048;-74
2022/12/27 12:21:04;;;;;;;18.05;2.30;;;;;;;;;;5111261;28;20066;-74
2022/12/27 12:23:45;;;;;;;6.18;1.48;;;;;;;;;;5109085;28;20061;-74
2022/12/27 12:26:20;;;;;;;12.48;2.00;;;;;;;;;;5112448;28;20015;-73
2022/12/27 12:29:02;;;;;;;12.02;1.90;;;;;;;;;;5111204;28;20427;-72
2022/12/27 12:31:28;;;;;;;8.30;1.73;;;;;;;;;;5109345;28;20034;-73
2022/12/27 12:33:57;;;;;;;7.43;2.20;;;;;;;;;;5111779;28;20015;-72
2022/12/27 12:36:23;;;;;;;10.63;3.30;;;;;;;;;;5116380;27;20139;-73
2022/12/27 12:38:57;;;;;;;15.65;2.13;;;;;;;;;;5106053;28;20406;-73
2022/12/27 12:41:42;;;;;;;13.43;2.80;;;;;;;;;;5086439;28;20402;-73
2022/12/27 12:44:21;;;;;;;23.67;3.17;;;;;;;;;;5111314;28;20386;-74
2022/12/27 12:46:51;;;;;;;14.55;2.85;;;;;;;;;;5105996;28;20023;-72
2022/12/27 12:49:37;;;;;;;28.17;3.45;;;;;;;;;;5110061;28;20052;-74
2022/12/27 12:52:03;;;;;;;22.13;7.07;;;;;;;;;;5103308;28;20191;-72
2022/12/27 12:54:29;;;;;;;15.32;4.30;;;;;;;;;;5088523;28;20035;-75
2022/12/27 12:57:14;;;;;;;16.08;5.28;;;;;;;;;;5108475;28;20027;-72
2022/12/27 12:59:45;;;;;;;11.73;2.78;;;;;;;;;;5105611;28;20449;-74
2022/12/27 13:02:11;;;;;;;9.10;2.07;;;;;;;;;;5108108;28;20019;-72
2022/12/27 13:05:04;;;;;;;13.48;2.47;;;;;;;;;;5110276;28;20034;-72
2022/12/27 13:07:50;;;;;;;11.85;2.92;;;;;;;;;;5103971;28;20035;-73
2022/12/27 13:10:35;;;;;;;13.85;2.17;;;;;;;;;;5096355;28;20035;-74
2022/12/27 13:13:00;;;;;;;14.55;2.50;;;;;;;;;;5096055;28;20664;-76
2022/12/27 13:15:49;;;;;;;16.58;2.72;;;;;;;;;;5082996;28;20019;-72
2022/12/27 13:18:22;;;;;;;17.02;2.78;;;;;;;;;;5105404;28;20490;-71
2022/12/27 13:21:00;;;;;;;16.67;3.42;;;;;;;;;;5099926;27;20368;-71
2022/12/27 13:23:46;;;;;;;11.43;2.42;;;;;;;;;;5107452;28;20453;-71
2022/12/27 13:26:24;;;;;;;9.63;2.65;;;;;;;;;;5101772;28;20380;-73
2022/12/27 13:28:53;;;;;;;13.30;2.85;;;;;;;;;;5092797;28;20477;-75
2022/12/27 13:31:38;;;;;;;13.60;2.22;;;;;;;;;;5099772;28;20024;-71
2022/12/27 13:34:18;;;;;;;11.60;3.47;;;;;;;;;;5079197;28;20032;-70
2022/12/27 13:36:59;;;;;;;9.77;3.08;;;;;;;;;;5103979;28;20047;-72
2022/12/27 13:39:44;;;;;;;18.30;3.45;;;;;;;;;;5096896;28;20504;-70
2022/12/27 13:42:19;;;;;;;16.67;4.20;;;;;;;;;;5100640;28;20667;-71
2022/12/27 13:45:05;;;;;;;13.15;2.63;;;;;;;;;;5101916;28;20491;-71
2022/12/27 13:47:42;;;;;;;10.85;3.30;;;;;;;;;;5067679;28;20044;-76
2022/12/27 13:50:27;;;;;;;23.00;3.60;;;;;;;;;;5101505;28;20024;-71
2022/12/27 13:53:03;;;;;;;13.02;3.15;;;;;;;;;;5099312;28;20036;-73
2022/12/27 13:55:35;;;;;;;14.02;4.40;;;;;;;;;;5073919;28;20112;-72
2022/12/27 13:58:24;;;;;;;17.48;5.43;;;;;;;;;;5102136;28;20038;-75
2022/12/27 14:00:50;;;;;;;15.18;3.55;;;;;;;;;;5098398;28;20024;-71
2022/12/27 14:03:39;;;;;;;13.23;3.13;;;;;;;;;;5106602;28;20019;-77
2022/12/27 14:06:13;;;;;;;16.27;3.42;;;;;;;;;;5070958;28;20495;-72
2022/12/27 14:08:57;;;;;;;16.83;4.50;;;;;;;;;;5100001;28;20492;-71
2022/12/27 14:11:39;;;;;;;9.20;3.00;;;;;;;;;;5098587;28;20524;-72
2022/12/27 14:14:06;;;;;;;18.02;4.05;;;;;;;;;;5107457;28;20111;-72
2022/12/27 14:16:44;;;;;;;13.70;3.33;;;;;;;;;;5101817;28;20024;-72
2022/12/27 14:19:18;;;;;;;15.07;3.05;;;;;;;;;;5098380;28;20068;-73
2022/12/27 14:21:47;;;;;;;18.52;3.70;;;;;;;;;;5095542;28;20042;-73
2022/12/27 14:24:19;;;;;;;16.67;3.75;;;;;;;;;;5111073;28;20023;-72
2022/12/27 14:27:00;;;;;;;10.77;3.10;;;;;;;;;;5099367;28;20047;-72
2022/12/27 14:29:55;;;;;;;14.80;5.22;;;;;;;;;;5102105;27;20020;-71
2022/12/27 14:32:42;;;;;;;13.38;5.22;;;;;;;;;;5096519;28;20127;-73
2022/12/27 14:35:17;;;;;;;14.45;5.10;;;;;;;;;;5114185;28;20074;-74
2022/12/27 14:37:43;;;;;;;12.65;4.07;;;;;;;;;;5111477;28;20093;-73
2022/12/27 14:40:18;;;;;;;21.27;5.60;;;;;;;;;;5112525;28;20032;-75
2022/12/27 14:43:03;;;;;;;17.10;6.03;;;;;;;;;;5111644;28;20032;-72
2022/12/27 14:45:35;;;;;;;16.30;5.25;;;;;;;;;;5112071;28;20389;-71
2022/12/27 14:48:01;;;;;;;10.43;4.82;;;;;;;;;;5114371;28;20024;-71
2022/12/27 14:50:27;;;;;;;16.40;5.43;;;;;;;;;;5111180;28;20090;-72
2022/12/27 14:53:09;;;;;;;13.73;5.20;;;;;;;;;;5113527;28;20020;-74
2022/12/27 14:55:35;;;;;;;;;;;;;;;;;;5114171;28;20035;-71
2022/12/27 14:58:08;;;;;;;17.15;5.13;;;;;;;;;;5113946;28;19911;-72
2022/12/27 15:01:07;;;;;;;11.43;4.90;;;;;;;;;;5107449;28;20032;-74
2022/12/27 15:03:53;;;;;;;13.00;5.53;;;;;;;;;;5057172;28;20032;-72
2022/12/27 15:06:39;;;;;;;18.52;5.53;;;;;;;;;;5107773;28;20114;-72
2022/12/27 15:09:12;;;;;;;17.80;6.65;;;;;;;;;;5112919;28;20135;-77
2022/12/27 15:11:53;;;;;;;22.42;7.40;;;;;;;;;;5110402;28;20050;-72
2022/12/27 15:14:19;;;;;;;18.65;6.28;;;;;;;;;;5112399;28;20028;-72
2022/12/27 15:16:57;;;;;;;18.95;6.70;;;;;;;;;;5111044;28;20039;-71
2022/12/27 15:19:41;;;;;;;21.67;7.40;;;;;;;;;;5111357;28;20044;-74
2022/12/27 15:22:26;;;;;;;15.05;6.97;;;;;;;;;;5093539;28;20034;-72
2022/12/27 15:25:07;;;;;;;13.90;6.88;;;;;;;;;;5112195;28;20020;-73
2022/12/27 15:27:33;;;;;;;19.75;6.63;;;;;;;;;;5111103;28;20043;-72
2022/12/27 15:30:08;;;;;;;15.57;7.57;;;;;;;;;;5116660;27;20023;-75
2022/12/27 15:32:44;;;;;;;17.83;7.05;;;;;;;;;;5095635;28;20027;-71
2022/12/27 15:35:16;;;;;;;14.90;7.22;;;;;;;;;;5109959;28;20034;-71
2022/12/27 15:38:01;;;;;;;15.20;7.38;;;;;;;;;;5087605;28;20208;-72
2022/12/27 15:40:26;;;;;;;18.98;8.75;;;;;;;;;;5111346;28;20036;-73
2022/12/27 15:43:11;;;;;;;20.65;8.02;;;;;;;;;;5090072;28;20035;-72
2022/12/27 15:45:58;;;;;;;14.35;7.15;;;;;;;;;;5100697;28;20030;-74
2022/12/27 15:48:43;;;;;;;15.45;7.93;;;;;;;;;;5099058;28;20106;-73
2022/12/27 15:51:28;;;;;;;19.52;7.70;;;;;;;;;;5105119;28;20172;-71
2022/12/27 15:54:16;;;;;;;25.80;12.15;;;;;;;;;;5088297;28;20171;-71
2022/12/27 15:56:43;;;;;;;30.00;12.65;;;;;;;;;;5099512;28;20433;-72
2022/12/27 15:59:27;;;;;;;21.60;9.77;;;;;;;;;;5107603;28;20036;-74
2022/12/27 16:02:12;;;;;;;25.15;8.77;;;;;;;;;;5100211;28;20040;-74
2022/12/27 16:04:49;;;;;;;20.92;12.05;;;;;;;;;;5101064;28;20055;-71
2022/12/27 16:07:33;;;;;;;26.75;14.30;;;;;;;;;;5094955;27;20539;-74
2022/12/27 16:09:59;;;;;;;38.22;18.83;;;;;;;;;;5098678;28;20464;-75
2022/12/27 16:12:36;;;;;;;31.20;14.07;;;;;;;;;;5099136;28;20032;-76
2022/12/27 16:15:21;;;;;;;26.83;14.07;;;;;;;;;;5101347;28;20032;-73
2022/12/27 16:17:54;;;;;;;23.63;13.18;;;;;;;;;;5101154;28;20724;-74
2022/12/27 16:20:22;;;;;;;29.17;11.80;;;;;;;;;;5100635;28;20226;-74
2022/12/27 16:22:51;;;;;;;23.50;10.57;;;;;;;;;;5094365;28;20443;-74
2022/12/27 16:25:21;;;;;;;29.30;11.25;;;;;;;;;;5097184;28;20472;-73
2022/12/27 16:27:52;;;;;;;57.22;25.17;;;;;;;;;;5100171;28;20051;-74